Time;durP1;ratioP1;P1;durP2;ratioP2;P2;SDS_P1;SDS_P2;PMS_P1;PMS_P2;Temp;Humidity;BMP_temperature;BMP_pressure;BME280_temperature;BME280_humidity;BME280_pressure;Samples;Min_cycle;Max_cycle;Signal;HPM_P1;HPM_P2
2022/10/23 00:01:50;;;;;;;14.33;7.07;;;;;;;11.41;100.00;101471.53;5089468;28;20062;-75
2022/10/23 00:04:19;;;;;;;15.80;7.40;;;;;;;11.44;100.00;101471.19;5107545;28;20035;-74
2022/10/23 00:06:45;;;;;;;21.83;7.28;;;;;;;11.47;100.00;101476.31;5106534;28;20020;-75
2022/10/23 00:09:15;;;;;;;24.30;7.57;;;;;;;11.47;100.00;101459.84;5106077;28;20127;-75
2022/10/23 00:11:43;;;;;;;24.10;7.43;;;;;;;11.47;100.00;101459.84;5107154;28;20090;-75
2022/10/23 00:14:09;;;;;;;21.83;7.63;;;;;;;11.48;100.00;101462.38;5103361;28;20032;-75
2022/10/23 00:16:34;;;;;;;27.33;7.20;;;;;;;11.48;100.00;101467.03;5101435;28;20044;-75
2022/10/23 00:19:00;;;;;;;26.37;6.60;;;;;;;11.41;100.00;101460.56;5103016;28;20027;-75
2022/10/23 00:21:26;;;;;;;30.57;7.70;;;;;;;11.42;100.00;101457.66;5109324;28;20027;-75
2022/10/23 00:23:52;;;;;;;22.20;7.70;;;;;;;11.41;100.00;101457.84;5088400;28;20039;-74
2022/10/23 00:26:18;;;;;;;34.10;7.17;;;;;;;11.40;100.00;101465.22;5106403;28;20027;-74
2022/10/23 00:28:46;;;;;;;21.53;7.50;;;;;;;11.38;100.00;101463.72;5078323;28;20804;-74
2022/10/23 00:31:12;;;;;;;17.80;7.50;;;;;;;11.36;100.00;101457.56;5082346;28;20028;-74
2022/10/23 00:33:37;;;;;;;24.23;6.97;;;;;;;11.39;100.00;101452.56;5092275;28;20044;-74
2022/10/23 00:36:05;;;;;;;30.10;6.63;;;;;;;11.38;100.00;101447.25;5099088;28;20271;-74
2022/10/23 00:38:30;;;;;;;24.60;7.10;;;;;;;11.37;100.00;101446.38;5093981;28;20030;-74
2022/10/23 00:40:56;;;;;;;25.20;6.90;;;;;;;11.30;100.00;101453.66;5107874;28;20098;-74
2022/10/23 00:43:25;;;;;;;37.27;8.53;;;;;;;11.30;100.00;101459.16;5088593;28;20127;-74
2022/10/23 00:45:51;;;;;;;19.35;6.57;;;;;;;11.30;100.00;101459.16;5097012;28;20023;-75
2022/10/23 00:48:17;;;;;;;30.33;7.20;;;;;;;11.30;100.00;101461.03;5091704;28;20027;-75
2022/10/23 00:50:43;;;;;;;32.03;7.23;;;;;;;11.31;100.00;101460.03;5071935;28;20359;-74
2022/10/23 00:53:11;;;;;;;14.32;6.90;;;;;;;11.27;100.00;101453.19;5106091;28;20081;-75
2022/10/23 00:55:40;;;;;;;15.70;6.75;;;;;;;11.28;100.00;101454.91;5108189;28;20035;-75
2022/10/23 00:58:05;;;;;;;14.45;6.25;;;;;;;11.26;100.00;101459.72;5089530;28;20031;-75
2022/10/23 01:00:43;;;;;;;24.90;8.17;;;;;;;11.25;100.00;101458.00;5090408;28;20027;-73
2022/10/23 01:03:08;;;;;;;13.63;6.57;;;;;;;11.23;100.00;101455.47;5107856;28;20044;-74
2022/10/23 01:05:43;;;;;;;15.27;6.47;;;;;;;11.21;100.00;101454.78;5107157;28;20043;-73
2022/10/23 01:08:21;;;;;;;18.52;7.25;;;;;;;11.13;100.00;101449.41;5108825;28;20028;-74
2022/10/23 01:11:09;;;;;;;15.07;6.38;;;;;;;11.10;100.00;101447.00;5107451;28;20038;-74
2022/10/23 01:13:43;;;;;;;20.83;6.63;;;;;;;11.08;100.00;101446.34;5085603;28;20045;-73
2022/10/23 01:16:30;;;;;;;23.58;6.18;;;;;;;11.03;100.00;101450.69;5109341;28;20303;-73
2022/10/23 01:19:05;;;;;;;45.08;7.88;;;;;;;10.99;100.00;101450.19;5106173;28;20417;-73
2022/10/23 01:21:40;;;;;;;30.80;6.65;;;;;;;10.99;100.00;101444.72;5107375;28;20078;-74
2022/10/23 01:24:18;;;;;;;13.20;6.07;;;;;;;10.94;100.00;101441.69;5105481;28;20189;-73
2022/10/23 01:26:50;;;;;;;17.77;6.40;;;;;;;10.91;100.00;101446.69;5107347;28;20027;-73
2022/10/23 01:29:28;;;;;;;17.42;6.55;;;;;;;10.91;100.00;101439.31;5107434;28;20132;-73
2022/10/23 01:32:04;;;;;;;16.02;6.50;;;;;;;10.89;100.00;101433.16;5110255;28;20110;-73
2022/10/23 01:34:37;;;;;;;18.65;6.85;;;;;;;10.89;100.00;101426.84;5110382;28;20019;-73
2022/10/23 01:37:05;;;;;;;31.02;6.57;;;;;;;10.86;100.00;101414.38;5093934;28;20054;-73
2022/10/23 01:39:36;;;;;;;37.28;6.47;;;;;;;10.88;100.00;101419.66;5110823;28;20035;-73
2022/10/23 01:42:07;;;;;;;16.83;7.13;;;;;;;10.87;100.00;101412.44;5111370;28;20214;-73
2022/10/23 01:44:41;;;;;;;21.20;6.65;;;;;;;10.89;100.00;101410.41;5110488;28;20459;-73
2022/10/23 01:47:11;;;;;;;11.85;6.10;;;;;;;10.87;100.00;101399.63;5107131;28;20441;-73
2022/10/23 01:49:39;;;;;;;24.65;6.93;;;;;;;10.88;100.00;101386.78;5109724;28;20072;-73
2022/10/23 01:52:10;;;;;;;21.90;6.20;;;;;;;10.91;100.00;101389.13;5111195;28;20031;-73
2022/10/23 01:54:42;;;;;;;18.50;6.28;;;;;;;10.94;100.00;101391.50;5108656;28;20534;-73
2022/10/23 01:57:10;;;;;;;15.98;6.38;;;;;;;10.98;100.00;101392.81;5079524;28;20027;-73
2022/10/23 01:59:41;;;;;;;40.08;8.90;;;;;;;10.97;100.00;101402.94;5082349;28;20046;-73
2022/10/23 02:02:09;;;;;;;19.95;6.82;;;;;;;11.01;100.00;101397.94;5112039;28;20024;-73
2022/10/23 02:04:39;;;;;;;27.10;6.95;;;;;;;11.12;100.00;101389.25;5111975;28;20035;-72
2022/10/23 02:07:05;;;;;;;23.65;6.85;;;;;;;11.22;100.00;101392.56;5111620;28;20451;-73
2022/10/23 02:09:31;;;;;;;26.33;7.07;;;;;;;11.22;100.00;101387.94;5092068;28;20392;-73
2022/10/23 02:12:08;;;;;;;25.60;7.28;;;;;;;11.28;100.00;101392.69;5108373;28;20058;-74
2022/10/23 02:14:49;;;;;;;40.73;8.07;;;;;;;11.34;100.00;101396.53;5110493;28;20039;-74
2022/10/23 02:17:20;;;;;;;21.27;6.78;;;;;;;11.34;100.00;101393.81;5099736;28;20363;-74
2022/10/23 02:19:52;;;;;;;16.45;6.78;;;;;;;11.43;100.00;101385.28;5087868;28;20020;-74
2022/10/23 02:22:28;;;;;;;34.90;7.32;;;;;;;11.42;100.00;101385.50;5111016;28;20023;-74
2022/10/23 02:25:08;;;;;;;19.33;6.38;;;;;;;11.38;100.00;101386.91;5110267;28;20051;-74
2022/10/23 02:27:46;;;;;;;22.55;6.32;;;;;;;11.37;100.00;101382.47;5110817;28;20423;-74
2022/10/23 02:30:15;;;;;;;15.45;6.63;;;;;;;11.41;100.00;101375.53;5110689;28;20193;-74
2022/10/23 02:32:46;;;;;;;27.20;6.45;;;;;;;11.40;100.00;101366.47;5110287;28;20028;-74
2022/10/23 02:35:11;;;;;;;15.70;6.72;;;;;;;11.38;100.00;101365.78;5110786;28;20050;-74
2022/10/23 02:37:37;;;;;;;25.50;6.33;;;;;;;11.39;100.00;101364.78;5111396;28;20482;-74
2022/10/23 02:40:03;;;;;;;28.53;6.27;;;;;;;11.41;100.00;101354.47;5092289;28;20020;-74
2022/10/23 02:42:41;;;;;;;25.73;6.57;;;;;;;11.45;100.00;101352.19;5109562;28;20028;-74
2022/10/23 02:45:16;;;;;;;20.88;6.53;;;;;;;11.52;100.00;101342.16;5110412;28;20081;-74
2022/10/23 02:48:10;;;;;;;19.45;5.85;;;;;;;11.50;100.00;101336.88;5110970;28;20474;-74
2022/10/23 02:51:11;;;;;;;29.55;7.38;;;;;;;11.52;100.00;101334.78;5110637;28;20127;-74
2022/10/23 02:53:48;;;;;;;24.98;5.75;;;;;;;11.48;100.00;101327.97;5091893;28;20023;-74
2022/10/23 02:56:21;;;;;;;36.25;6.97;;;;;;;11.46;100.00;101319.09;5109309;28;20024;-74
2022/10/23 02:59:02;;;;;;;17.23;6.28;;;;;;;11.54;100.00;101315.38;5082756;28;20420;-74
2022/10/23 03:01:58;;;;;;;16.73;6.55;;;;;;;11.60;100.00;101307.28;5092189;28;20471;-74
2022/10/23 03:04:26;;;;;;;13.48;6.80;;;;;;;11.64;100.00;101305.00;5108607;28;20118;-74
2022/10/23 03:06:53;;;;;;;21.00;7.50;;;;;;;11.61;100.00;101306.22;5110705;28;20505;-74
2022/10/23 03:09:18;;;;;;;23.67;6.00;;;;;;;11.63;100.00;101300.56;5099227;28;20035;-74
2022/10/23 03:11:43;;;;;;;32.20;7.07;;;;;;;11.64;100.00;101296.75;5106864;28;20036;-74
2022/10/23 03:14:11;;;;;;;19.93;7.10;;;;;;;11.69;100.00;101294.28;5108804;28;20043;-74
2022/10/23 03:16:36;;;;;;;19.65;7.35;;;;;;;11.73;100.00;101298.31;5110918;28;20107;-74
2022/10/23 03:19:01;;;;;;;22.30;7.10;;;;;;;11.84;100.00;101297.84;5090853;28;20489;-74
2022/10/23 03:21:27;;;;;;;26.53;6.53;;;;;;;11.75;100.00;101293.50;5110728;28;20024;-74
2022/10/23 03:23:52;;;;;;;31.87;7.23;;;;;;;11.67;100.00;101286.25;5109320;28;20035;-73
2022/10/23 03:26:17;;;;;;;21.13;7.17;;;;;;;11.66;100.00;101272.72;5107491;28;20039;-73
2022/10/23 03:28:43;;;;;;;28.53;7.57;;;;;;;11.72;100.00;101275.53;5105715;28;20474;-73
2022/10/23 03:31:08;;;;;;;27.17;7.23;;;;;;;11.69;100.00;101277.81;5091081;28;20034;-74
2022/10/23 03:33:33;;;;;;;14.50;6.57;;;;;;;11.74;100.00;101276.19;5109304;28;20116;-74
2022/10/23 03:35:58;;;;;;;25.27;7.50;;;;;;;11.70;100.00;101271.28;5109417;28;20076;-74
2022/10/23 03:38:24;;;;;;;16.93;6.50;;;;;;;11.66;100.00;101278.19;5109357;28;20372;-73
2022/10/23 03:40:49;;;;;;;28.23;7.73;;;;;;;11.70;100.00;101280.34;5107399;28;20031;-73
2022/10/23 03:43:14;;;;;;;24.13;6.20;;;;;;;11.67;100.00;101263.41;5105769;28;20104;-73
2022/10/23 03:45:40;;;;;;;19.13;6.40;;;;;;;11.67;100.00;101263.41;5111354;28;20482;-74
2022/10/23 03:48:06;;;;;;;19.13;6.93;;;;;;;11.67;100.00;101264.28;5091444;28;20114;-73
2022/10/23 03:50:32;;;;;;;19.00;6.10;;;;;;;11.65;100.00;101266.38;5106393;28;20039;-73
2022/10/23 03:52:57;;;;;;;20.83;6.80;;;;;;;11.66;100.00;101254.34;5108990;28;20573;-74
2022/10/23 03:55:25;;;;;;;33.63;8.17;;;;;;;11.63;100.00;101264.88;5107528;28;20119;-73
2022/10/23 03:57:51;;;;;;;18.35;6.53;;;;;;;11.65;100.00;101255.41;5107567;28;20115;-73
2022/10/23 04:00:16;;;;;;;12.47;5.93;;;;;;;11.67;100.00;101258.78;5108478;28;20111;-73
2022/10/23 04:02:42;;;;;;;17.93;6.90;;;;;;;11.67;100.00;101252.44;5109474;28;20028;-74
2022/10/23 04:05:08;;;;;;;12.97;6.33;;;;;;;11.64;100.00;101250.94;5108056;28;20040;-73
2022/10/23 04:07:33;;;;;;;20.07;6.43;;;;;;;11.70;100.00;101252.06;5109647;28;20024;-74
2022/10/23 04:09:58;;;;;;;15.13;6.60;;;;;;;11.73;100.00;101235.19;5108856;28;20029;-74
2022/10/23 04:12:24;;;;;;;14.27;6.00;;;;;;;11.71;100.00;101234.56;5105957;28;20042;-74
2022/10/23 04:14:49;;;;;;;13.83;5.50;;;;;;;11.75;100.00;101222.97;5090220;28;20539;-74
2022/10/23 04:17:14;;;;;;;11.87;6.10;;;;;;;11.79;100.00;101227.03;5109077;28;20035;-74
2022/10/23 04:19:39;;;;;;;13.50;6.43;;;;;;;11.76;100.00;101221.97;5109182;28;20103;-74
2022/10/23 04:22:05;;;;;;;17.93;6.20;;;;;;;11.72;100.00;101217.91;5109335;28;20099;-75
2022/10/23 04:24:30;;;;;;;16.17;6.13;;;;;;;11.73;100.00;101211.38;5107133;28;20394;-74
2022/10/23 04:26:55;;;;;;;14.03;6.03;;;;;;;11.72;100.00;101203.31;5089746;28;20028;-74
2022/10/23 04:29:23;;;;;;;18.93;6.47;;;;;;;11.69;100.00;101207.31;5106107;28;20066;-74
2022/10/23 04:31:49;;;;;;;17.88;6.18;;;;;;;11.72;100.00;101206.91;5110069;28;20031;-74
2022/10/23 04:34:14;;;;;;;51.93;6.60;;;;;;;11.71;100.00;101209.84;5107171;28;20027;-74
2022/10/23 04:36:39;;;;;;;12.93;5.77;;;;;;;11.70;100.00;101202.69;5109053;28;20036;-74
2022/10/23 04:39:05;;;;;;;12.10;5.13;;;;;;;11.74;100.00;101193.84;5090592;28;20111;-73
2022/10/23 04:41:30;;;;;;;19.17;7.07;;;;;;;11.75;100.00;101187.31;5107043;28;20788;-74
2022/10/23 04:43:55;;;;;;;17.23;6.03;;;;;;;11.79;100.00;101198.75;5102013;28;20186;-74
2022/10/23 04:46:21;;;;;;;14.57;6.43;;;;;;;11.80;100.00;101198.53;5108201;28;20067;-74
2022/10/23 04:48:46;;;;;;;15.70;5.40;;;;;;;11.87;100.00;101204.09;5107490;28;20039;-75
2022/10/23 04:51:11;;;;;;;18.80;5.83;;;;;;;11.84;100.00;101212.75;5105629;28;20423;-74
2022/10/23 04:53:37;;;;;;;10.83;6.47;;;;;;;11.83;100.00;101211.03;5106464;28;20027;-74
2022/10/23 04:56:03;;;;;;;20.83;5.65;;;;;;;11.79;100.00;101212.50;5105704;28;20126;-74
2022/10/23 04:58:29;;;;;;;14.63;5.73;;;;;;;11.79;100.00;101207.81;5088031;28;20166;-74
2022/10/23 05:00:55;;;;;;;17.17;5.67;;;;;;;11.81;100.00;101197.53;5106833;28;20490;-74
2022/10/23 05:03:21;;;;;;;16.20;6.17;;;;;;;11.82;100.00;101199.22;5102247;28;20031;-74
2022/10/23 05:05:46;;;;;;;12.68;5.50;;;;;;;11.87;100.00;101201.34;5106762;28;20406;-74
2022/10/23 05:08:12;;;;;;;14.07;6.00;;;;;;;11.87;100.00;101198.63;5111092;28;20036;-74
2022/10/23 05:10:37;;;;;;;19.87;5.90;;;;;;;11.93;100.00;101195.06;5111717;28;20147;-74
2022/10/23 05:13:03;;;;;;;19.20;6.27;;;;;;;11.90;100.00;101192.75;5091912;28;20044;-74
2022/10/23 05:15:28;;;;;;;15.53;6.10;;;;;;;11.89;100.00;101199.25;5108091;28;20067;-74
2022/10/23 05:17:58;;;;;;;13.37;4.93;;;;;;;11.90;100.00;101198.22;5110761;28;20441;-74
2022/10/23 05:20:27;;;;;;;21.15;6.32;;;;;;;11.91;100.00;101191.69;5108720;28;20297;-74
2022/10/23 05:22:55;;;;;;;25.58;6.32;;;;;;;11.86;100.00;101186.78;5088613;28;20474;-74
2022/10/23 05:25:20;;;;;;;16.30;5.18;;;;;;;11.89;100.00;101185.53;5074896;28;20093;-74
2022/10/23 05:27:46;;;;;;;18.87;5.50;;;;;;;11.88;100.00;101178.34;5108590;28;20023;-74
2022/10/23 05:30:12;;;;;;;16.47;5.30;;;;;;;11.87;100.00;101198.63;5111459;28;20111;-74
2022/10/23 05:32:37;;;;;;;16.70;5.50;;;;;;;11.89;100.00;101199.25;5112177;28;20031;-74
2022/10/23 05:35:11;;;;;;;26.77;5.53;;;;;;;11.89;100.00;101196.50;5093601;28;20089;-74
2022/10/23 05:37:40;;;;;;;16.40;5.65;;;;;;;11.90;100.00;101188.09;5111294;28;20479;-74
2022/10/23 05:40:06;;;;;;;10.73;5.78;;;;;;;11.86;100.00;101188.69;5112573;28;20042;-74
2022/10/23 05:42:32;;;;;;;22.70;5.80;;;;;;;11.95;100.00;101193.00;5110630;28;20031;-74
2022/10/23 05:44:57;;;;;;;20.37;6.40;;;;;;;11.89;100.00;101185.53;5107158;28;20340;-74
2022/10/23 05:47:22;;;;;;;14.07;5.60;;;;;;;11.92;100.00;101185.16;5093643;28;20062;-74
2022/10/23 05:49:47;;;;;;;17.23;6.07;;;;;;;11.93;100.00;101179.47;5110606;28;20120;-74
2022/10/23 05:52:13;;;;;;;22.97;6.63;;;;;;;11.95;100.00;101174.63;5111380;28;20071;-74
2022/10/23 05:54:38;;;;;;;23.40;6.00;;;;;;;11.92;100.00;101174.16;5093023;28;20027;-74
2022/10/23 05:57:04;;;;;;;15.93;5.17;;;;;;;11.92;100.00;101161.31;5108982;28;20115;-73
2022/10/23 05:59:29;;;;;;;22.77;5.63;;;;;;;11.97;100.00;101160.69;5088015;28;20463;-73
2022/10/23 06:01:54;;;;;;;20.63;6.20;;;;;;;11.93;100.00;101163.00;5112101;28;20028;-73
2022/10/23 06:04:19;;;;;;;12.50;5.13;;;;;;;11.88;100.00;101167.38;5110569;28;20031;-73
2022/10/23 06:06:46;;;;;;;11.80;5.30;;;;;;;11.86;100.00;101162.06;5091977;28;20492;-74
2022/10/23 06:09:11;;;;;;;21.80;5.33;;;;;;;11.85;100.00;101163.13;5111220;28;20063;-74
2022/10/23 06:11:37;;;;;;;15.43;5.07;;;;;;;11.81;100.00;101158.22;5092948;28;20314;-74
2022/10/23 06:14:02;;;;;;;13.63;5.17;;;;;;;11.84;100.00;101149.63;5093464;28;20457;-74
2022/10/23 06:16:28;;;;;;;11.03;5.20;;;;;;;11.84;100.00;101157.84;5108446;28;20514;-74
2022/10/23 06:18:54;;;;;;;17.43;5.80;;;;;;;11.92;100.00;101154.94;5110322;28;20076;-74
2022/10/23 06:21:19;;;;;;;12.63;5.47;;;;;;;11.97;100.00;101155.22;5107330;28;20023;-73
2022/10/23 06:23:45;;;;;;;11.97;5.70;;;;;;;11.92;100.00;101135.72;5111918;28;20451;-73
2022/10/23 06:26:13;;;;;;;15.15;5.63;;;;;;;11.93;100.00;101118.22;5109374;28;20107;-74
2022/10/23 06:28:39;;;;;;;25.25;6.57;;;;;;;11.94;100.00;101106.19;5110384;28;20107;-73
2022/10/23 06:31:06;;;;;;;17.42;5.38;;;;;;;11.95;100.00;101119.72;5109214;28;20028;-74
2022/10/23 06:33:32;;;;;;;21.83;5.43;;;;;;;11.94;100.00;101118.00;5109899;28;20032;-73
2022/10/23 06:35:57;;;;;;;36.13;7.83;;;;;;;11.94;100.00;101122.66;5108159;28;20103;-74
2022/10/23 06:38:23;;;;;;;21.77;6.70;;;;;;;11.91;100.00;101112.91;5110584;28;20038;-74
2022/10/23 06:40:52;;;;;;;20.97;6.50;;;;;;;11.94;100.00;101117.16;5090068;28;20050;-73
2022/10/23 06:43:18;;;;;;;12.48;5.75;;;;;;;12.00;100.00;101113.63;5105601;28;20037;-74
2022/10/23 06:45:43;;;;;;;22.23;6.30;;;;;;;11.99;100.00;101121.00;5091222;28;20086;-73
2022/10/23 06:48:08;;;;;;;21.57;5.57;;;;;;;11.98;100.00;101115.72;5110070;28;20464;-73
2022/10/23 06:50:36;;;;;;;12.93;5.73;;;;;;;11.99;100.00;101109.16;5109567;28;20054;-74
2022/10/23 06:53:02;;;;;;;30.33;7.70;;;;;;;12.03;100.00;101099.50;5104715;28;20383;-74
2022/10/23 06:55:28;;;;;;;18.38;7.35;;;;;;;12.01;100.00;101093.38;5087967;28;20046;-74
2022/10/23 06:57:54;;;;;;;16.25;6.18;;;;;;;12.09;100.00;101083.06;5110171;28;20031;-73
2022/10/23 07:00:20;;;;;;;24.80;7.50;;;;;;;12.09;100.00;101074.84;5109340;28;20026;-73
2022/10/23 07:02:45;;;;;;;14.95;6.15;;;;;;;12.16;100.00;101094.94;5113284;28;20015;-74
2022/10/23 07:05:11;;;;;;;31.40;6.13;;;;;;;12.24;100.00;101102.16;5109000;28;20037;-74
2022/10/23 07:07:36;;;;;;;21.43;8.27;;;;;;;12.26;100.00;101100.06;5083692;28;20097;-73
2022/10/23 07:10:02;;;;;;;15.93;6.00;;;;;;;12.35;100.00;101102.47;5077027;28;20024;-74
2022/10/23 07:12:28;;;;;;;30.05;6.40;;;;;;;12.35;100.00;101101.59;5109870;28;20061;-74
2022/10/23 07:14:53;;;;;;;16.40;7.00;;;;;;;12.43;100.00;101083.06;5106831;28;20514;-74
2022/10/23 07:17:19;;;;;;;13.37;5.93;;;;;;;12.44;100.00;101087.50;5109401;28;20031;-74
2022/10/23 07:19:45;;;;;;;13.00;6.90;;;;;;;12.46;100.00;101084.53;5105725;28;20024;-74
2022/10/23 07:22:11;;;;;;;18.20;6.55;;;;;;;12.51;100.00;101087.53;5108676;28;20028;-74
2022/10/23 07:24:37;;;;;;;20.63;6.87;;;;;;;12.51;100.00;101088.41;5104833;28;20043;-74
2022/10/23 07:27:03;;;;;;;24.58;6.70;;;;;;;12.55;100.00;101088.81;5108880;28;20031;-74
2022/10/23 07:29:29;;;;;;;17.23;6.18;;;;;;;12.56;100.00;101074.88;5107630;28;20023;-74
2022/10/23 07:31:54;;;;;;;18.70;5.63;;;;;;;12.60;100.00;101080.81;5092236;28;20023;-74
2022/10/23 07:34:19;;;;;;;17.73;6.50;;;;;;;12.63;100.00;101077.66;5108912;28;20081;-74
2022/10/23 07:36:45;;;;;;;20.77;6.07;;;;;;;12.64;100.00;101071.13;5108369;28;20027;-74
2022/10/23 07:39:10;;;;;;;17.30;6.20;;;;;;;12.66;100.00;101069.00;5093606;28;20130;-74
2022/10/23 07:41:36;;;;;;;11.00;6.13;;;;;;;12.69;100.00;101074.06;5109058;28;20475;-74
2022/10/23 07:44:01;;;;;;;22.60;7.00;;;;;;;12.70;100.00;101073.88;5107128;28;20050;-74
2022/10/23 07:46:27;;;;;;;26.97;6.60;;;;;;;12.77;100.00;101080.28;5108281;28;20027;-74
2022/10/23 07:48:52;;;;;;;19.80;6.27;;;;;;;12.84;100.00;101078.38;5109713;28;20023;-74
2022/10/23 07:51:17;;;;;;;13.30;6.03;;;;;;;12.92;100.00;101075.44;5108428;28;20031;-73
2022/10/23 07:53:43;;;;;;;23.67;6.40;;;;;;;12.93;100.00;101077.16;5094629;28;20077;-74
2022/10/23 07:56:26;;;;;;;14.80;6.47;;;;;;;13.04;100.00;101076.59;5091939;28;20106;-74
2022/10/23 07:58:52;;;;;;;14.23;6.00;;;;;;;13.05;100.00;101063.66;5085032;28;20066;-74
2022/10/23 08:01:29;;;;;;;10.98;6.03;;;;;;;13.04;100.00;101062.81;5080224;28;20076;-74
2022/10/23 08:03:54;;;;;;;15.27;5.90;;;;;;;13.07;100.00;101073.41;5104935;28;20038;-74
2022/10/23 08:06:19;;;;;;;26.60;6.43;;;;;;;13.07;100.00;101058.81;5108961;28;20031;-75
2022/10/23 08:08:45;;;;;;;18.57;6.73;;;;;;;13.10;100.00;101050.13;5087778;28;20497;-74
2022/10/23 08:11:13;;;;;;;13.27;5.97;;;;;;;13.16;100.00;101050.16;5110660;28;20131;-74
2022/10/23 08:13:39;;;;;;;26.92;6.47;;;;;;;13.15;100.00;101037.47;5085424;28;20451;-74
2022/10/23 08:16:05;;;;;;;12.23;6.23;;;;;;;13.26;100.00;101041.47;5109114;28;20070;-74
2022/10/23 08:18:30;;;;;;;24.50;6.97;;;;;;;13.24;100.00;101046.34;5091628;28;20737;-74
2022/10/23 08:21:00;;;;;;;13.43;6.13;;;;;;;13.29;100.00;101038.31;5108581;28;20083;-74
2022/10/23 08:23:26;;;;;;;15.70;6.82;;;;;;;13.33;100.00;101032.19;5109472;28;20504;-75
2022/10/23 08:26:00;;;;;;;15.35;5.70;;;;;;;13.42;100.00;101021.81;5109043;28;20027;-74
2022/10/23 08:28:26;;;;;;;17.00;5.40;;;;;;;13.48;100.00;101029.22;5068976;28;20107;-73
2022/10/23 08:30:52;;;;;;;8.95;6.05;;;;;;;13.49;100.00;101040.03;5102528;28;20150;-74
2022/10/23 08:33:17;;;;;;;12.47;6.43;;;;;;;13.60;100.00;101033.03;5101376;28;20453;-73
2022/10/23 08:35:42;;;;;;;17.93;6.07;;;;;;;13.58;100.00;101026.88;5106598;28;20072;-74
2022/10/23 08:38:10;;;;;;;19.37;6.27;;;;;;;13.53;100.00;101030.28;5106900;28;20028;-74
2022/10/23 08:40:35;;;;;;;22.60;6.70;;;;;;;13.52;100.00;101030.50;5088199;28;20028;-75
2022/10/23 08:43:14;;;;;;;26.53;6.07;;;;;;;13.52;100.00;101016.72;5114147;28;20136;-74
2022/10/23 08:45:47;;;;;;;15.35;6.85;;;;;;;13.53;100.00;101010.16;5095083;28;20024;-74
2022/10/23 08:49:00;;;;;;;19.45;5.97;;;;;;;13.53;100.00;101005.50;5113494;28;20031;-72
2022/10/23 08:51:36;;;;;;;23.48;5.88;;;;;;;13.51;100.00;101009.53;5011236;28;20038;-73
2022/10/23 08:54:15;;;;;;;19.42;5.43;;;;;;;13.52;100.00;101005.72;5084964;28;20048;-74
2022/10/23 08:56:43;;;;;;;10.25;5.75;;;;;;;13.59;100.00;101007.41;5102770;28;20525;-74
2022/10/23 08:59:27;;;;;;;27.52;7.15;;;;;;;13.60;100.00;101006.34;5095016;28;20027;-74
2022/10/23 09:02:20;;;;;;;17.00;6.60;;;;;;;13.59;100.00;101007.41;5094513;28;20028;-74
2022/10/23 09:04:48;;;;;;;19.05;5.60;;;;;;;13.61;100.00;100998.94;5102621;28;20530;-74
2022/10/23 09:07:32;;;;;;;12.63;5.50;;;;;;;13.72;100.00;100995.56;5104363;28;20032;-74
2022/10/23 09:10:20;;;;;;;19.67;5.90;;;;;;;13.70;100.00;100989.38;5074694;28;20142;-75
2022/10/23 09:12:45;;;;;;;20.23;5.40;;;;;;;13.73;100.00;100994.47;5080594;28;20035;-74
2022/10/23 09:15:18;;;;;;;16.10;5.20;;;;;;;13.76;100.00;100992.16;5083473;28;20045;-75
2022/10/23 09:17:44;;;;;;;14.20;5.00;;;;;;;13.91;100.00;100983.63;5107383;28;20085;-75
2022/10/23 09:20:21;;;;;;;8.93;5.47;;;;;;;13.88;100.00;100989.59;5109509;28;20020;-74
2022/10/23 09:22:48;;;;;;;12.50;5.32;;;;;;;13.90;100.00;100987.47;5108650;28;20055;-74
2022/10/23 09:25:24;;;;;;;20.13;5.80;;;;;;;13.87;100.00;100977.72;5080040;28;20031;-73
2022/10/23 09:27:55;;;;;;;23.60;5.55;;;;;;;13.90;100.00;100970.94;5083404;28;20072;-72
2022/10/23 09:30:32;;;;;;;12.63;6.20;;;;;;;13.94;100.00;100972.19;5108955;28;20039;-72
2022/10/23 09:32:59;;;;;;;16.20;5.45;;;;;;;13.96;100.00;100964.56;5074104;28;20040;-72
2022/10/23 09:35:25;;;;;;;;;;;;;;;13.99;100.00;100961.38;5091055;28;20054;-72
2022/10/23 09:37:52;;;;;;;13.32;4.95;;;;;;;14.03;100.00;100960.72;5105927;28;19926;-72
2022/10/23 09:40:34;;;;;;;16.85;4.78;;;;;;;14.08;100.00;100957.34;5108859;28;20046;-73
2022/10/23 09:43:12;;;;;;;15.77;4.90;;;;;;;14.12;100.00;100951.16;5106781;28;20095;-72
2022/10/23 09:45:40;;;;;;;;;;;;;;;14.19;100.00;100948.41;5106917;28;20467;-72
2022/10/23 09:48:12;;;;;;;11.82;4.97;;;;;;;14.33;100.00;100950.03;5107296;28;19915;-72
2022/10/23 09:50:48;;;;;;;14.98;4.78;;;;;;;14.32;100.00;100948.34;5086813;28;20020;-73
2022/10/23 09:53:30;;;;;;;13.50;5.55;;;;;;;14.36;100.00;100942.19;5095196;28;20568;-72
2022/10/23 09:55:59;;;;;;;7.00;4.60;;;;;;;14.39;100.00;100947.25;5104067;28;20023;-73
2022/10/23 09:58:35;;;;;;;22.25;4.78;;;;;;;14.40;100.00;100937.09;5107258;28;20059;-72
2022/10/23 10:01:01;;;;;;;11.75;5.20;;;;;;;14.39;100.00;100936.25;5109545;28;20035;-72
2022/10/23 10:03:26;;;;;;;20.35;5.60;;;;;;;14.42;100.00;100923.94;5085544;28;20104;-72
2022/10/23 10:05:58;;;;;;;14.20;5.37;;;;;;;14.50;100.00;100919.00;5074120;28;20043;-72
2022/10/23 10:08:45;;;;;;;17.63;4.40;;;;;;;14.54;100.00;100919.41;5108329;28;20394;-72
2022/10/23 10:11:34;;;;;;;14.15;4.82;;;;;;;14.65;100.00;100910.41;5078114;28;20020;-72
2022/10/23 10:14:29;;;;;;;13.07;5.30;;;;;;;14.70;99.78;100900.44;5110724;28;20028;-72
2022/10/23 10:17:04;;;;;;;13.40;4.65;;;;;;;14.71;99.51;100896.59;5101122;28;20548;-72
2022/10/23 10:19:55;;;;;;;14.55;4.43;;;;;;;14.81;99.25;100894.19;5102115;28;20017;-73
2022/10/23 10:22:37;;;;;;;7.75;3.63;;;;;;;14.89;98.60;100899.41;5098357;28;20028;-73
2022/10/23 10:25:14;;;;;;;32.95;4.88;;;;;;;14.96;98.50;100889.19;5108708;28;20048;-72
2022/10/23 10:27:52;;;;;;;7.13;4.20;;;;;;;15.04;98.49;100888.09;5110248;28;20489;-72
2022/10/23 10:30:20;;;;;;;23.23;4.50;;;;;;;15.12;98.02;100887.78;5106316;28;20023;-72
2022/10/23 10:33:11;;;;;;;10.15;4.40;;;;;;;15.16;97.35;100864.19;5084224;28;20122;-72
2022/10/23 10:35:47;;;;;;;12.02;4.25;;;;;;;15.20;97.52;100854.41;5104929;28;20047;-72
2022/10/23 10:38:37;;;;;;;15.32;4.35;;;;;;;15.34;96.59;100850.44;5110118;28;20028;-71
2022/10/23 10:41:11;;;;;;;20.95;4.65;;;;;;;15.43;96.57;100855.44;5094270;28;20080;-72
2022/10/23 10:43:45;;;;;;;14.10;4.28;;;;;;;15.50;96.08;100863.66;5110058;28;20541;-73
2022/10/23 10:46:37;;;;;;;30.75;4.47;;;;;;;15.61;96.32;100868.41;5111704;28;20023;-72
2022/10/23 10:49:16;;;;;;;30.45;4.40;;;;;;;15.72;94.59;100864.88;5091909;28;20031;-73
2022/10/23 10:52:05;;;;;;;21.67;4.18;;;;;;;15.72;95.00;100863.00;5092742;28;20509;-72
2022/10/23 10:55:01;;;;;;;5.10;3.90;;;;;;;15.77;94.46;100851.22;5108491;28;20129;-72
2022/10/23 10:57:38;;;;;;;12.73;4.18;;;;;;;15.89;93.33;100841.94;5110008;28;20035;-72
2022/10/23 11:00:21;;;;;;;9.93;4.43;;;;;;;16.01;93.22;100826.25;5110349;28;20386;-72
2022/10/23 11:03:18;;;;;;;9.15;3.75;;;;;;;16.13;93.34;100818.91;5091639;28;20028;-72
2022/10/23 11:05:47;;;;;;;10.85;3.83;;;;;;;16.20;92.54;100804.97;5100667;28;20058;-72
2022/10/23 11:08:19;;;;;;;10.45;3.97;;;;;;;16.33;91.86;100797.31;5109732;28;20055;-72
2022/10/23 11:10:49;;;;;;;22.15;3.92;;;;;;;16.33;92.28;100808.38;5091240;28;20070;-72
2022/10/23 11:13:33;;;;;;;7.40;3.42;;;;;;;16.48;91.08;100811.56;5104832;28;20115;-72
2022/10/23 11:16:11;;;;;;;15.95;3.20;;;;;;;16.62;89.90;100813.06;5110754;28;20063;-72
2022/10/23 11:18:41;;;;;;;11.55;4.05;;;;;;;16.64;90.29;100801.78;5109321;28;20066;-72
2022/10/23 11:21:15;;;;;;;15.40;3.72;;;;;;;16.72;89.69;100782.03;5109458;28;20031;-72
2022/10/23 11:24:17;;;;;;;34.63;4.30;;;;;;;16.76;89.68;100770.25;5109094;28;20085;-72
2022/10/23 11:26:53;;;;;;;22.23;3.50;;;;;;;16.84;89.45;100769.06;5110968;28;20059;-72